sensor_id;sensor_type;location;lat;lon;timestamp;P1;durP1;ratioP1;P2;durP2;ratioP2
51475;SDS011;37554;50.362;7.568;2023-06-19T00:01:45;2.72;;;2.53;;
51475;SDS011;37554;50.362;7.568;2023-06-19T00:04:11;2.60;;;2.40;;
51475;SDS011;37554;50.362;7.568;2023-06-19T00:06:37;3.10;;;2.90;;
51475;SDS011;37554;50.362;7.568;2023-06-19T00:09:02;2.88;;;2.67;;
51475;SDS011;37554;50.362;7.568;2023-06-19T00:11:28;2.42;;;2.33;;
51475;SDS011;37554;50.362;7.568;2023-06-19T00:13:54;2.70;;;2.50;;
51475;SDS011;37554;50.362;7.568;2023-06-19T00:16:20;2.70;;;2.50;;
51475;SDS011;37554;50.362;7.568;2023-06-19T00:18:46;2.70;;;2.50;;
51475;SDS011;37554;50.362;7.568;2023-06-19T00:21:12;3.13;;;2.92;;
51475;SDS011;37554;50.362;7.568;2023-06-19T00:23:37;2.88;;;2.67;;
51475;SDS011;37554;50.362;7.568;2023-06-19T00:26:03;2.47;;;2.28;;
51475;SDS011;37554;50.362;7.568;2023-06-19T00:28:30;2.72;;;2.53;;
51475;SDS011;37554;50.362;7.568;2023-06-19T00:30:56;2.67;;;2.47;;
51475;SDS011;37554;50.362;7.568;2023-06-19T00:33:22;3.00;;;2.80;;
51475;SDS011;37554;50.362;7.568;2023-06-19T00:35:49;2.65;;;2.45;;
51475;SDS011;37554;50.362;7.568;2023-06-19T00:38:15;3.13;;;2.80;;
51475;SDS011;37554;50.362;7.568;2023-06-19T00:40:41;4.80;;;2.55;;
51475;SDS011;37554;50.362;7.568;2023-06-19T00:43:07;2.60;;;2.40;;
51475;SDS011;37554;50.362;7.568;2023-06-19T00:45:32;2.42;;;2.33;;
51475;SDS011;37554;50.362;7.568;2023-06-19T00:47:59;2.90;;;2.70;;
51475;SDS011;37554;50.362;7.568;2023-06-19T00:50:25;2.90;;;2.70;;
51475;SDS011;37554;50.362;7.568;2023-06-19T00:52:54;2.80;;;2.60;;
51475;SDS011;37554;50.362;7.568;2023-06-19T00:55:20;2.38;;;2.28;;
51475;SDS011;37554;50.362;7.568;2023-06-19T00:57:46;2.78;;;2.58;;
51475;SDS011;37554;50.362;7.568;2023-06-19T01:00:14;2.83;;;2.63;;
51475;SDS011;37554;50.362;7.568;2023-06-19T01:02:40;3.00;;;2.80;;
51475;SDS011;37554;50.362;7.568;2023-06-19T01:05:06;2.88;;;2.60;;
51475;SDS011;37554;50.362;7.568;2023-06-19T01:10:14;2.75;;;2.55;;
51475;SDS011;37554;50.362;7.568;2023-06-19T01:12:57;2.90;;;2.70;;
51475;SDS011;37554;50.362;7.568;2023-06-19T01:15:27;2.65;;;2.45;;
51475;SDS011;37554;50.362;7.568;2023-06-19T01:17:53;3.03;;;2.80;;
51475;SDS011;37554;50.362;7.568;2023-06-19T01:20:21;2.72;;;2.50;;
51475;SDS011;37554;50.362;7.568;2023-06-19T01:22:47;3.22;;;2.83;;
51475;SDS011;37554;50.362;7.568;2023-06-19T01:25:12;3.42;;;2.60;;
51475;SDS011;37554;50.362;7.568;2023-06-19T01:27:39;2.92;;;2.72;;
51475;SDS011;37554;50.362;7.568;2023-06-19T01:30:07;2.58;;;2.45;;
51475;SDS011;37554;50.362;7.568;2023-06-19T01:32:44;2.80;;;2.60;;
51475;SDS011;37554;50.362;7.568;2023-06-19T01:35:27;3.22;;;2.92;;
51475;SDS011;37554;50.362;7.568;2023-06-19T01:37:54;2.83;;;2.63;;
51475;SDS011;37554;50.362;7.568;2023-06-19T01:40:21;2.50;;;2.40;;
51475;SDS011;37554;50.362;7.568;2023-06-19T01:42:50;2.75;;;2.55;;
51475;SDS011;37554;50.362;7.568;2023-06-19T01:45:17;3.38;;;3.03;;
51475;SDS011;37554;50.362;7.568;2023-06-19T01:47:43;2.90;;;2.70;;
51475;SDS011;37554;50.362;7.568;2023-06-19T01:50:10;3.00;;;2.75;;
51475;SDS011;37554;50.362;7.568;2023-06-19T01:52:37;2.92;;;2.72;;
51475;SDS011;37554;50.362;7.568;2023-06-19T01:55:04;2.88;;;2.65;;
51475;SDS011;37554;50.362;7.568;2023-06-19T01:57:30;2.80;;;2.60;;
51475;SDS011;37554;50.362;7.568;2023-06-19T01:59:56;2.70;;;2.50;;
51475;SDS011;37554;50.362;7.568;2023-06-19T02:02:22;2.88;;;2.65;;
51475;SDS011;37554;50.362;7.568;2023-06-19T02:04:47;2.85;;;2.53;;
51475;SDS011;37554;50.362;7.568;2023-06-19T02:07:13;2.88;;;2.70;;
51475;SDS011;37554;50.362;7.568;2023-06-19T02:09:39;2.75;;;2.55;;
51475;SDS011;37554;50.362;7.568;2023-06-19T02:12:06;3.05;;;2.80;;
51475;SDS011;37554;50.362;7.568;2023-06-19T02:14:32;3.10;;;2.90;;
51475;SDS011;37554;50.362;7.568;2023-06-19T02:16:58;3.35;;;2.40;;
51475;SDS011;37554;50.362;7.568;2023-06-19T02:19:23;2.40;;;2.20;;
51475;SDS011;37554;50.362;7.568;2023-06-19T02:21:49;2.85;;;2.50;;
51475;SDS011;37554;50.362;7.568;2023-06-19T02:24:15;2.70;;;2.50;;
51475;SDS011;37554;50.362;7.568;2023-06-19T02:26:40;3.33;;;2.97;;
51475;SDS011;37554;50.362;7.568;2023-06-19T02:29:06;2.97;;;2.78;;
51475;SDS011;37554;50.362;7.568;2023-06-19T02:31:31;2.58;;;2.38;;
51475;SDS011;37554;50.362;7.568;2023-06-19T02:33:57;2.78;;;2.60;;
51475;SDS011;37554;50.362;7.568;2023-06-19T02:36:23;2.75;;;2.55;;
51475;SDS011;37554;50.362;7.568;2023-06-19T02:38:48;2.75;;;2.55;;
51475;SDS011;37554;50.362;7.568;2023-06-19T02:41:14;2.92;;;2.72;;
51475;SDS011;37554;50.362;7.568;2023-06-19T02:43:43;2.90;;;2.70;;
51475;SDS011;37554;50.362;7.568;2023-06-19T02:46:11;2.90;;;2.70;;
51475;SDS011;37554;50.362;7.568;2023-06-19T02:48:37;3.17;;;2.90;;
51475;SDS011;37554;50.362;7.568;2023-06-19T02:51:02;2.95;;;2.75;;
51475;SDS011;37554;50.362;7.568;2023-06-19T02:53:28;2.70;;;2.50;;
51475;SDS011;37554;50.362;7.568;2023-06-19T02:55:53;2.92;;;2.70;;
51475;SDS011;37554;50.362;7.568;2023-06-19T02:58:19;3.40;;;2.58;;
51475;SDS011;37554;50.362;7.568;2023-06-19T03:00:45;2.95;;;2.75;;
51475;SDS011;37554;50.362;7.568;2023-06-19T03:03:11;2.95;;;2.75;;
51475;SDS011;37554;50.362;7.568;2023-06-19T03:05:37;3.03;;;2.67;;
51475;SDS011;37554;50.362;7.568;2023-06-19T03:08:03;3.25;;;2.95;;
51475;SDS011;37554;50.362;7.568;2023-06-19T03:10:29;3.15;;;2.95;;
51475;SDS011;37554;50.362;7.568;2023-06-19T03:12:55;3.38;;;2.85;;
51475;SDS011;37554;50.362;7.568;2023-06-19T03:15:23;3.53;;;2.85;;
51475;SDS011;37554;50.362;7.568;2023-06-19T03:17:49;2.85;;;2.65;;
51475;SDS011;37554;50.362;7.568;2023-06-19T03:20:14;3.20;;;2.88;;
51475;SDS011;37554;50.362;7.568;2023-06-19T03:22:40;2.95;;;2.60;;
51475;SDS011;37554;50.362;7.568;2023-06-19T03:25:07;2.85;;;2.55;;
51475;SDS011;37554;50.362;7.568;2023-06-19T03:27:33;3.17;;;2.90;;
51475;SDS011;37554;50.362;7.568;2023-06-19T03:29:59;2.88;;;2.67;;
51475;SDS011;37554;50.362;7.568;2023-06-19T03:32:25;3.03;;;2.80;;
51475;SDS011;37554;50.362;7.568;2023-06-19T03:34:51;3.10;;;2.90;;
51475;SDS011;37554;50.362;7.568;2023-06-19T03:37:16;3.28;;;3.03;;
51475;SDS011;37554;50.362;7.568;2023-06-19T03:39:42;2.90;;;2.70;;
51475;SDS011;37554;50.362;7.568;2023-06-19T03:42:08;3.08;;;2.88;;
51475;SDS011;37554;50.362;7.568;2023-06-19T03:44:33;3.35;;;3.15;;
51475;SDS011;37554;50.362;7.568;2023-06-19T03:46:59;3.17;;;2.97;;
51475;SDS011;37554;50.362;7.568;2023-06-19T03:49:25;3.10;;;2.90;;
51475;SDS011;37554;50.362;7.568;2023-06-19T03:51:51;3.33;;;3.08;;
51475;SDS011;37554;50.362;7.568;2023-06-19T03:54:19;3.40;;;3.17;;
51475;SDS011;37554;50.362;7.568;2023-06-19T03:56:45;3.60;;;3.25;;
51475;SDS011;37554;50.362;7.568;2023-06-19T03:59:10;3.10;;;2.90;;
51475;SDS011;37554;50.362;7.568;2023-06-19T04:01:36;3.03;;;2.80;;
51475;SDS011;37554;50.362;7.568;2023-06-19T04:04:02;3.83;;;2.90;;
51475;SDS011;37554;50.362;7.568;2023-06-19T04:06:27;2.90;;;2.70;;
51475;SDS011;37554;50.362;7.568;2023-06-19T04:08:53;3.28;;;3.08;;
51475;SDS011;37554;50.362;7.568;2023-06-19T04:11:19;3.00;;;2.80;;
51475;SDS011;37554;50.362;7.568;2023-06-19T04:13:45;3.65;;;2.95;;
51475;SDS011;37554;50.362;7.568;2023-06-19T04:16:11;2.65;;;2.45;;
51475;SDS011;37554;50.362;7.568;2023-06-19T04:18:37;4.60;;;3.00;;
51475;SDS011;37554;50.362;7.568;2023-06-19T04:21:03;3.10;;;2.90;;
51475;SDS011;37554;50.362;7.568;2023-06-19T04:23:29;3.13;;;2.92;;
51475;SDS011;37554;50.362;7.568;2023-06-19T04:25:54;3.42;;;3.13;;
51475;SDS011;37554;50.362;7.568;2023-06-19T04:28:20;3.00;;;2.80;;
51475;SDS011;37554;50.362;7.568;2023-06-19T04:30:46;3.10;;;2.90;;
51475;SDS011;37554;50.362;7.568;2023-06-19T04:33:11;3.08;;;2.83;;
51475;SDS011;37554;50.362;7.568;2023-06-19T04:35:37;3.30;;;3.00;;
51475;SDS011;37554;50.362;7.568;2023-06-19T04:38:05;2.65;;;2.45;;
51475;SDS011;37554;50.362;7.568;2023-06-19T04:40:34;3.10;;;2.90;;
51475;SDS011;37554;50.362;7.568;2023-06-19T04:43:01;3.22;;;2.95;;
51475;SDS011;37554;50.362;7.568;2023-06-19T04:45:27;3.00;;;2.80;;
51475;SDS011;37554;50.362;7.568;2023-06-19T04:47:53;3.28;;;2.60;;
51475;SDS011;37554;50.362;7.568;2023-06-19T04:50:19;3.85;;;2.50;;
51475;SDS011;37554;50.362;7.568;2023-06-19T04:52:45;3.10;;;2.80;;
51475;SDS011;37554;50.362;7.568;2023-06-19T04:55:12;3.17;;;2.55;;
51475;SDS011;37554;50.362;7.568;2023-06-19T04:57:38;2.70;;;2.50;;
51475;SDS011;37554;50.362;7.568;2023-06-19T05:00:04;2.70;;;2.50;;
51475;SDS011;37554;50.362;7.568;2023-06-19T05:02:35;3.45;;;2.58;;
51475;SDS011;37554;50.362;7.568;2023-06-19T05:05:01;2.80;;;2.60;;
51475;SDS011;37554;50.362;7.568;2023-06-19T05:07:31;2.97;;;2.45;;
51475;SDS011;37554;50.362;7.568;2023-06-19T05:09:57;2.55;;;2.22;;
51475;SDS011;37554;50.362;7.568;2023-06-19T05:12:23;2.72;;;2.53;;
51475;SDS011;37554;50.362;7.568;2023-06-19T05:14:49;2.70;;;2.50;;
51475;SDS011;37554;50.362;7.568;2023-06-19T05:17:15;3.78;;;2.47;;
51475;SDS011;37554;50.362;7.568;2023-06-19T05:19:40;2.15;;;1.95;;
51475;SDS011;37554;50.362;7.568;2023-06-19T05:22:06;2.55;;;2.08;;
51475;SDS011;37554;50.362;7.568;2023-06-19T05:24:32;2.35;;;2.15;;
51475;SDS011;37554;50.362;7.568;2023-06-19T05:26:58;2.40;;;2.30;;
51475;SDS011;37554;50.362;7.568;2023-06-19T05:29:23;2.42;;;2.22;;
51475;SDS011;37554;50.362;7.568;2023-06-19T05:31:49;2.30;;;2.10;;
51475;SDS011;37554;50.362;7.568;2023-06-19T05:34:15;2.45;;;2.25;;
51475;SDS011;37554;50.362;7.568;2023-06-19T05:36:41;2.30;;;2.13;;
51475;SDS011;37554;50.362;7.568;2023-06-19T05:39:12;2.50;;;2.30;;
51475;SDS011;37554;50.362;7.568;2023-06-19T05:41:38;2.40;;;2.20;;
51475;SDS011;37554;50.362;7.568;2023-06-19T05:44:03;2.47;;;2.25;;
51475;SDS011;37554;50.362;7.568;2023-06-19T05:46:29;2.38;;;2.15;;
51475;SDS011;37554;50.362;7.568;2023-06-19T05:48:55;2.47;;;2.30;;
51475;SDS011;37554;50.362;7.568;2023-06-19T05:51:20;2.42;;;2.22;;
51475;SDS011;37554;50.362;7.568;2023-06-19T05:53:46;2.00;;;1.90;;
51475;SDS011;37554;50.362;7.568;2023-06-19T05:56:12;2.25;;;1.88;;
51475;SDS011;37554;50.362;7.568;2023-06-19T05:58:37;5.28;;;2.17;;
51475;SDS011;37554;50.362;7.568;2023-06-19T06:01:04;2.03;;;1.92;;
51475;SDS011;37554;50.362;7.568;2023-06-19T06:03:30;2.20;;;2.10;;
51475;SDS011;37554;50.362;7.568;2023-06-19T06:05:56;2.63;;;2.30;;
51475;SDS011;37554;50.362;7.568;2023-06-19T06:08:27;3.23;;;1.97;;
51475;SDS011;37554;50.362;7.568;2023-06-19T06:10:57;2.20;;;2.00;;
51475;SDS011;37554;50.362;7.568;2023-06-19T06:13:22;2.05;;;1.95;;
51475;SDS011;37554;50.362;7.568;2023-06-19T06:15:48;2.17;;;2.00;;
51475;SDS011;37554;50.362;7.568;2023-06-19T06:18:15;2.80;;;2.20;;
51475;SDS011;37554;50.362;7.568;2023-06-19T06:20:40;2.20;;;2.00;;
51475;SDS011;37554;50.362;7.568;2023-06-19T06:23:06;2.13;;;2.00;;
51475;SDS011;37554;50.362;7.568;2023-06-19T06:25:31;2.17;;;2.05;;
51475;SDS011;37554;50.362;7.568;2023-06-19T06:27:57;2.15;;;2.05;;
51475;SDS011;37554;50.362;7.568;2023-06-19T06:30:22;2.05;;;1.88;;
51475;SDS011;37554;50.362;7.568;2023-06-19T06:32:48;2.50;;;2.30;;
51475;SDS011;37554;50.362;7.568;2023-06-19T06:35:15;3.40;;;2.50;;
51475;SDS011;37554;50.362;7.568;2023-06-19T06:37:40;2.35;;;2.15;;
51475;SDS011;37554;50.362;7.568;2023-06-19T06:40:07;2.40;;;2.20;;
51475;SDS011;37554;50.362;7.568;2023-06-19T06:42:36;3.65;;;2.00;;
51475;SDS011;37554;50.362;7.568;2023-06-19T06:45:03;2.33;;;2.13;;
51475;SDS011;37554;50.362;7.568;2023-06-19T06:47:30;2.60;;;2.40;;
51475;SDS011;37554;50.362;7.568;2023-06-19T06:49:56;2.65;;;2.45;;
51475;SDS011;37554;50.362;7.568;2023-06-19T06:52:21;3.03;;;2.60;;
51475;SDS011;37554;50.362;7.568;2023-06-19T06:54:47;2.72;;;2.10;;
51475;SDS011;37554;50.362;7.568;2023-06-19T06:57:13;2.30;;;2.13;;
51475;SDS011;37554;50.362;7.568;2023-06-19T06:59:38;3.55;;;2.22;;
51475;SDS011;37554;50.362;7.568;2023-06-19T07:02:05;2.38;;;2.17;;
51475;SDS011;37554;50.362;7.568;2023-06-19T07:04:31;2.20;;;2.00;;
51475;SDS011;37554;50.362;7.568;2023-06-19T07:06:56;2.00;;;1.90;;
51475;SDS011;37554;50.362;7.568;2023-06-19T07:09:23;3.15;;;2.10;;
51475;SDS011;37554;50.362;7.568;2023-06-19T07:11:49;6.00;;;1.92;;
51475;SDS011;37554;50.362;7.568;2023-06-19T07:14:15;1.90;;;1.73;;
51475;SDS011;37554;50.362;7.568;2023-06-19T07:16:43;2.08;;;1.92;;
51475;SDS011;37554;50.362;7.568;2023-06-19T07:19:10;3.25;;;1.83;;
51475;SDS011;37554;50.362;7.568;2023-06-19T07:21:36;2.45;;;1.60;;
51475;SDS011;37554;50.362;7.568;2023-06-19T07:24:03;2.58;;;1.90;;
51475;SDS011;37554;50.362;7.568;2023-06-19T07:26:30;1.98;;;1.63;;
51475;SDS011;37554;50.362;7.568;2023-06-19T07:28:56;3.10;;;1.58;;
51475;SDS011;37554;50.362;7.568;2023-06-19T07:31:21;1.67;;;1.58;;
51475;SDS011;37554;50.362;7.568;2023-06-19T07:33:47;1.83;;;1.73;;
51475;SDS011;37554;50.362;7.568;2023-06-19T07:36:13;1.70;;;1.60;;
51475;SDS011;37554;50.362;7.568;2023-06-19T07:38:42;1.80;;;1.70;;
51475;SDS011;37554;50.362;7.568;2023-06-19T07:41:08;1.75;;;1.63;;
51475;SDS011;37554;50.362;7.568;2023-06-19T07:43:35;1.95;;;1.58;;
51475;SDS011;37554;50.362;7.568;2023-06-19T07:46:01;3.20;;;1.48;;
51475;SDS011;37554;50.362;7.568;2023-06-19T07:48:27;2.13;;;1.92;;
51475;SDS011;37554;50.362;7.568;2023-06-19T07:50:53;1.95;;;1.75;;
51475;SDS011;37554;50.362;7.568;2023-06-19T07:53:19;1.60;;;1.50;;
51475;SDS011;37554;50.362;7.568;2023-06-19T07:55:44;1.70;;;1.60;;
51475;SDS011;37554;50.362;7.568;2023-06-19T07:58:10;2.30;;;1.48;;
51475;SDS011;37554;50.362;7.568;2023-06-19T08:00:35;1.90;;;1.50;;
51475;SDS011;37554;50.362;7.568;2023-06-19T08:03:01;1.60;;;1.50;;
51475;SDS011;37554;50.362;7.568;2023-06-19T08:05:27;1.70;;;1.60;;
51475;SDS011;37554;50.362;7.568;2023-06-19T08:07:52;1.98;;;1.50;;
51475;SDS011;37554;50.362;7.568;2023-06-19T08:10:18;1.40;;;1.30;;
51475;SDS011;37554;50.362;7.568;2023-06-19T08:12:44;3.35;;;1.35;;
51475;SDS011;37554;50.362;7.568;2023-06-19T08:15:10;2.22;;;1.60;;
51475;SDS011;37554;50.362;7.568;2023-06-19T08:17:36;1.33;;;1.23;;
51475;SDS011;37554;50.362;7.568;2023-06-19T08:20:02;1.33;;;1.23;;
51475;SDS011;37554;50.362;7.568;2023-06-19T08:22:31;1.60;;;1.30;;
51475;SDS011;37554;50.362;7.568;2023-06-19T08:24:56;1.40;;;1.30;;
51475;SDS011;37554;50.362;7.568;2023-06-19T08:27:22;1.30;;;1.15;;
51475;SDS011;37554;50.362;7.568;2023-06-19T08:29:48;1.48;;;1.38;;
51475;SDS011;37554;50.362;7.568;2023-06-19T08:32:13;1.38;;;1.20;;
51475;SDS011;37554;50.362;7.568;2023-06-19T08:34:39;1.17;;;1.08;;
51475;SDS011;37554;50.362;7.568;2023-06-19T08:37:05;1.30;;;1.20;;
51475;SDS011;37554;50.362;7.568;2023-06-19T08:39:31;1.05;;;1.00;;
51475;SDS011;37554;50.362;7.568;2023-06-19T08:41:57;1.45;;;1.30;;
51475;SDS011;37554;50.362;7.568;2023-06-19T08:44:22;2.35;;;1.00;;
51475;SDS011;37554;50.362;7.568;2023-06-19T08:46:48;0.85;;;0.85;;
51475;SDS011;37554;50.362;7.568;2023-06-19T08:49:13;1.15;;;1.05;;
51475;SDS011;37554;50.362;7.568;2023-06-19T08:51:42;1.90;;;1.10;;
51475;SDS011;37554;50.362;7.568;2023-06-19T08:54:08;1.80;;;1.27;;
51475;SDS011;37554;50.362;7.568;2023-06-19T08:56:34;1.30;;;1.20;;
51475;SDS011;37554;50.362;7.568;2023-06-19T08:59:11;4.05;;;1.30;;
51475;SDS011;37554;50.362;7.568;2023-06-19T09:01:37;1.30;;;1.20;;
51475;SDS011;37554;50.362;7.568;2023-06-19T09:04:13;2.90;;;1.40;;
51475;SDS011;37554;50.362;7.568;2023-06-19T09:07:12;1.90;;;1.20;;
51475;SDS011;37554;50.362;7.568;2023-06-19T09:09:32;2.10;;;0.88;;
51475;SDS011;37554;50.362;7.568;2023-06-19T09:12:05;1.40;;;1.15;;
51475;SDS011;37554;50.362;7.568;2023-06-19T09:14:42;1.48;;;1.15;;
51475;SDS011;37554;50.362;7.568;2023-06-19T09:17:19;1.23;;;1.13;;
51475;SDS011;37554;50.362;7.568;2023-06-19T09:19:51;1.10;;;1.00;;
51475;SDS011;37554;50.362;7.568;2023-06-19T09:22:21;1.15;;;1.05;;
51475;SDS011;37554;50.362;7.568;2023-06-19T09:24:47;1.38;;;1.10;;
51475;SDS011;37554;50.362;7.568;2023-06-19T09:27:14;1.30;;;1.20;;
51475;SDS011;37554;50.362;7.568;2023-06-19T09:29:44;1.30;;;1.20;;
51475;SDS011;37554;50.362;7.568;2023-06-19T09:32:21;1.63;;;1.10;;
51475;SDS011;37554;50.362;7.568;2023-06-19T09:34:49;1.35;;;1.10;;
51475;SDS011;37554;50.362;7.568;2023-06-19T09:37:20;1.67;;;1.08;;
51475;SDS011;37554;50.362;7.568;2023-06-19T09:39:58;1.13;;;1.02;;
51475;SDS011;37554;50.362;7.568;2023-06-19T09:42:36;0.88;;;0.82;;
51475;SDS011;37554;50.362;7.568;2023-06-19T09:45:10;1.20;;;1.10;;
51475;SDS011;37554;50.362;7.568;2023-06-19T09:47:43;1.13;;;1.00;;
51475;SDS011;37554;50.362;7.568;2023-06-19T09:50:13;1.20;;;1.10;;
51475;SDS011;37554;50.362;7.568;2023-06-19T09:52:40;1.10;;;1.00;;
51475;SDS011;37554;50.362;7.568;2023-06-19T09:55:07;0.88;;;0.88;;
51475;SDS011;37554;50.362;7.568;2023-06-19T09:57:34;1.27;;;1.10;;
51475;SDS011;37554;50.362;7.568;2023-06-19T10:00:03;1.27;;;1.17;;
51475;SDS011;37554;50.362;7.568;2023-06-19T10:02:42;1.23;;;1.00;;
51475;SDS011;37554;50.362;7.568;2023-06-19T10:05:09;0.73;;;0.73;;
51475;SDS011;37554;50.362;7.568;2023-06-19T10:07:38;1.10;;;1.00;;
51475;SDS011;37554;50.362;7.568;2023-06-19T10:10:07;1.90;;;0.85;;
51475;SDS011;37554;50.362;7.568;2023-06-19T10:15:15;1.00;;;0.80;;
51475;SDS011;37554;50.362;7.568;2023-06-19T10:17:46;0.95;;;0.95;;
51475;SDS011;37554;50.362;7.568;2023-06-19T10:22:56;0.88;;;0.88;;
51475;SDS011;37554;50.362;7.568;2023-06-19T10:25:24;1.13;;;0.90;;
51475;SDS011;37554;50.362;7.568;2023-06-19T10:27:54;1.10;;;0.80;;
51475;SDS011;37554;50.362;7.568;2023-06-19T10:30:20;1.80;;;1.15;;
51475;SDS011;37554;50.362;7.568;2023-06-19T10:32:48;1.30;;;0.80;;
51475;SDS011;37554;50.362;7.568;2023-06-19T10:35:14;1.42;;;0.90;;
51475;SDS011;37554;50.362;7.568;2023-06-19T10:37:42;1.40;;;1.00;;
51475;SDS011;37554;50.362;7.568;2023-06-19T10:40:08;1.27;;;1.10;;
51475;SDS011;37554;50.362;7.568;2023-06-19T10:42:41;1.60;;;1.50;;
51475;SDS011;37554;50.362;7.568;2023-06-19T10:45:08;1.98;;;1.08;;
51475;SDS011;37554;50.362;7.568;2023-06-19T10:47:37;2.38;;;1.40;;
51475;SDS011;37554;50.362;7.568;2023-06-19T10:50:05;1.25;;;1.15;;
51475;SDS011;37554;50.362;7.568;2023-06-19T10:52:40;1.30;;;1.20;;
51475;SDS011;37554;50.362;7.568;2023-06-19T10:55:10;1.40;;;1.30;;
51475;SDS011;37554;50.362;7.568;2023-06-19T10:57:37;1.27;;;1.17;;
51475;SDS011;37554;50.362;7.568;2023-06-19T11:00:04;1.40;;;1.15;;
51475;SDS011;37554;50.362;7.568;2023-06-19T11:02:37;1.15;;;1.05;;
51475;SDS011;37554;50.362;7.568;2023-06-19T11:05:04;1.40;;;1.30;;
51475;SDS011;37554;50.362;7.568;2023-06-19T11:07:31;1.05;;;0.88;;
51475;SDS011;37554;50.362;7.568;2023-06-19T11:09:57;1.95;;;0.90;;
51475;SDS011;37554;50.362;7.568;2023-06-19T11:12:23;1.25;;;1.10;;
51475;SDS011;37554;50.362;7.568;2023-06-19T11:14:49;2.22;;;0.80;;
51475;SDS011;37554;50.362;7.568;2023-06-19T11:17:15;0.93;;;0.93;;
51475;SDS011;37554;50.362;7.568;2023-06-19T11:22:11;1.35;;;0.70;;
51475;SDS011;37554;50.362;7.568;2023-06-19T11:24:43;1.77;;;1.00;;
51475;SDS011;37554;50.362;7.568;2023-06-19T11:27:16;0.85;;;0.85;;
51475;SDS011;37554;50.362;7.568;2023-06-19T11:29:43;1.10;;;1.00;;
51475;SDS011;37554;50.362;7.568;2023-06-19T11:32:12;1.20;;;1.10;;
51475;SDS011;37554;50.362;7.568;2023-06-19T11:34:38;1.00;;;0.90;;
51475;SDS011;37554;50.362;7.568;2023-06-19T11:37:16;1.10;;;0.85;;
51475;SDS011;37554;50.362;7.568;2023-06-19T11:39:43;1.70;;;1.00;;
51475;SDS011;37554;50.362;7.568;2023-06-19T11:42:10;1.10;;;0.80;;
51475;SDS011;37554;50.362;7.568;2023-06-19T11:44:35;0.90;;;0.88;;
51475;SDS011;37554;50.362;7.568;2023-06-19T11:47:18;0.95;;;0.75;;
51475;SDS011;37554;50.362;7.568;2023-06-19T11:49:43;0.95;;;0.90;;
51475;SDS011;37554;50.362;7.568;2023-06-19T11:52:13;1.48;;;0.65;;
51475;SDS011;37554;50.362;7.568;2023-06-19T11:54:38;0.80;;;0.70;;
51475;SDS011;37554;50.362;7.568;2023-06-19T11:57:04;0.85;;;0.70;;
51475;SDS011;37554;50.362;7.568;2023-06-19T11:59:30;1.15;;;0.90;;
51475;SDS011;37554;50.362;7.568;2023-06-19T12:01:56;0.70;;;0.70;;
51475;SDS011;37554;50.362;7.568;2023-06-19T12:04:23;1.02;;;0.70;;
51475;SDS011;37554;50.362;7.568;2023-06-19T12:06:49;0.80;;;0.80;;
51475;SDS011;37554;50.362;7.568;2023-06-19T12:09:14;1.35;;;0.68;;
51475;SDS011;37554;50.362;7.568;2023-06-19T12:11:40;0.55;;;0.55;;
51475;SDS011;37554;50.362;7.568;2023-06-19T12:14:06;0.85;;;0.85;;
51475;SDS011;37554;50.362;7.568;2023-06-19T12:16:31;2.15;;;0.80;;
51475;SDS011;37554;50.362;7.568;2023-06-19T12:18:57;0.70;;;0.57;;
51475;SDS011;37554;50.362;7.568;2023-06-19T12:21:23;0.88;;;0.70;;
51475;SDS011;37554;50.362;7.568;2023-06-19T12:23:48;1.75;;;0.57;;
51475;SDS011;37554;50.362;7.568;2023-06-19T12:26:14;0.68;;;0.65;;
51475;SDS011;37554;50.362;7.568;2023-06-19T12:28:40;0.82;;;0.60;;
51475;SDS011;37554;50.362;7.568;2023-06-19T12:31:05;2.38;;;0.70;;
51475;SDS011;37554;50.362;7.568;2023-06-19T12:33:31;0.52;;;0.52;;
51475;SDS011;37554;50.362;7.568;2023-06-19T12:35:57;0.50;;;0.50;;
51475;SDS011;37554;50.362;7.568;2023-06-19T12:38:23;0.73;;;0.65;;
51475;SDS011;37554;50.362;7.568;2023-06-19T12:40:49;0.70;;;0.60;;
51475;SDS011;37554;50.362;7.568;2023-06-19T12:43:15;0.70;;;0.60;;
51475;SDS011;37554;50.362;7.568;2023-06-19T12:45:40;0.60;;;0.50;;
51475;SDS011;37554;50.362;7.568;2023-06-19T12:48:06;0.60;;;0.60;;
51475;SDS011;37554;50.362;7.568;2023-06-19T12:50:32;0.93;;;0.80;;
51475;SDS011;37554;50.362;7.568;2023-06-19T12:52:58;0.82;;;0.73;;
51475;SDS011;37554;50.362;7.568;2023-06-19T12:55:23;0.80;;;0.52;;
51475;SDS011;37554;50.362;7.568;2023-06-19T12:57:49;0.75;;;0.70;;
51475;SDS011;37554;50.362;7.568;2023-06-19T13:00:15;1.13;;;0.68;;
51475;SDS011;37554;50.362;7.568;2023-06-19T13:02:40;0.70;;;0.70;;
51475;SDS011;37554;50.362;7.568;2023-06-19T13:05:08;0.50;;;0.50;;
51475;SDS011;37554;50.362;7.568;2023-06-19T13:07:34;1.05;;;0.60;;
51475;SDS011;37554;50.362;7.568;2023-06-19T13:10:00;0.60;;;0.60;;
51475;SDS011;37554;50.362;7.568;2023-06-19T13:12:26;0.50;;;0.50;;
51475;SDS011;37554;50.362;7.568;2023-06-19T13:14:52;0.60;;;0.60;;
51475;SDS011;37554;50.362;7.568;2023-06-19T13:17:18;0.98;;;0.65;;
51475;SDS011;37554;50.362;7.568;2023-06-19T13:19:44;0.50;;;0.50;;
51475;SDS011;37554;50.362;7.568;2023-06-19T13:22:09;1.00;;;0.55;;
51475;SDS011;37554;50.362;7.568;2023-06-19T13:24:35;0.80;;;0.60;;
51475;SDS011;37554;50.362;7.568;2023-06-19T13:27:01;0.93;;;0.60;;
51475;SDS011;37554;50.362;7.568;2023-06-19T13:29:27;0.95;;;0.60;;
51475;SDS011;37554;50.362;7.568;2023-06-19T13:31:53;0.60;;;0.60;;
51475;SDS011;37554;50.362;7.568;2023-06-19T13:34:18;0.47;;;0.47;;
51475;SDS011;37554;50.362;7.568;2023-06-19T13:36:46;0.65;;;0.65;;
51475;SDS011;37554;50.362;7.568;2023-06-19T13:39:12;0.63;;;0.63;;
51475;SDS011;37554;50.362;7.568;2023-06-19T13:41:38;0.77;;;0.50;;
51475;SDS011;37554;50.362;7.568;2023-06-19T13:44:04;0.65;;;0.65;;
51475;SDS011;37554;50.362;7.568;2023-06-19T13:46:29;0.63;;;0.52;;
51475;SDS011;37554;50.362;7.568;2023-06-19T13:48:56;0.52;;;0.52;;
51475;SDS011;37554;50.362;7.568;2023-06-19T13:51:22;0.70;;;0.60;;
51475;SDS011;37554;50.362;7.568;2023-06-19T13:53:49;0.93;;;0.60;;
51475;SDS011;37554;50.362;7.568;2023-06-19T13:56:15;0.85;;;0.63;;
51475;SDS011;37554;50.362;7.568;2023-06-19T13:58:41;1.00;;;0.80;;
51475;SDS011;37554;50.362;7.568;2023-06-19T14:01:07;0.50;;;0.50;;
51475;SDS011;37554;50.362;7.568;2023-06-19T14:03:32;0.77;;;0.70;;
51475;SDS011;37554;50.362;7.568;2023-06-19T14:05:58;0.50;;;0.50;;
51475;SDS011;37554;50.362;7.568;2023-06-19T14:08:24;0.65;;;0.57;;
51475;SDS011;37554;50.362;7.568;2023-06-19T14:10:50;0.50;;;0.50;;
51475;SDS011;37554;50.362;7.568;2023-06-19T14:13:16;0.60;;;0.60;;
51475;SDS011;37554;50.362;7.568;2023-06-19T14:15:42;0.70;;;0.70;;
51475;SDS011;37554;50.362;7.568;2023-06-19T14:18:08;0.75;;;0.75;;
51475;SDS011;37554;50.362;7.568;2023-06-19T14:20:33;0.85;;;0.63;;
51475;SDS011;37554;50.362;7.568;2023-06-19T14:22:59;0.65;;;0.65;;
51475;SDS011;37554;50.362;7.568;2023-06-19T14:25:25;0.75;;;0.63;;
51475;SDS011;37554;50.362;7.568;2023-06-19T14:27:51;1.33;;;0.57;;
51475;SDS011;37554;50.362;7.568;2023-06-19T14:30:17;0.80;;;0.80;;
51475;SDS011;37554;50.362;7.568;2023-06-19T14:32:43;1.02;;;0.80;;
51475;SDS011;37554;50.362;7.568;2023-06-19T14:35:08;0.60;;;0.60;;
51475;SDS011;37554;50.362;7.568;2023-06-19T14:37:34;1.52;;;0.63;;
51475;SDS011;37554;50.362;7.568;2023-06-19T14:39:59;0.90;;;0.90;;
51475;SDS011;37554;50.362;7.568;2023-06-19T14:42:25;0.70;;;0.70;;
51475;SDS011;37554;50.362;7.568;2023-06-19T14:44:51;0.80;;;0.80;;
51475;SDS011;37554;50.362;7.568;2023-06-19T14:47:16;0.80;;;0.80;;
51475;SDS011;37554;50.362;7.568;2023-06-19T14:49:42;2.45;;;0.70;;
51475;SDS011;37554;50.362;7.568;2023-06-19T14:52:08;0.80;;;0.80;;
51475;SDS011;37554;50.362;7.568;2023-06-19T14:54:33;1.33;;;0.88;;
51475;SDS011;37554;50.362;7.568;2023-06-19T14:56:59;1.00;;;0.63;;